createdAt,value
2023-03-22T00:00:39.902Z,66.65
2023-03-22T00:01:43.443Z,66.89
2023-03-22T00:02:46.423Z,66.32
2023-03-22T00:03:50.825Z,67.02
2023-03-22T00:04:54.153Z,66.95
2023-03-22T00:05:57.980Z,67.37
2023-03-22T00:07:00.842Z,68.63
2023-03-22T00:08:07.489Z,68.69
2023-03-22T00:09:10.417Z,68.18
2023-03-22T00:10:13.287Z,68.35
2023-03-22T00:11:16.333Z,68.74
2023-03-22T00:12:19.175Z,69.43
2023-03-22T00:13:22.072Z,69.45
2023-03-22T00:14:25.142Z,68.84
2023-03-22T00:15:29.834Z,68.84
2023-03-22T00:16:33.102Z,68.70
2023-03-22T00:17:36.867Z,69.55
2023-03-22T00:18:39.723Z,68.94
2023-03-22T00:19:45.424Z,68.85
2023-03-22T00:20:50.351Z,69.16
2023-03-22T00:21:53.267Z,69.50
2023-03-22T00:22:56.889Z,69.22
2023-03-22T00:23:59.812Z,68.98
2023-03-22T00:25:02.671Z,68.74
2023-03-22T00:26:06.069Z,69.30
2023-03-22T00:27:08.952Z,70.04
2023-03-22T00:28:13.013Z,70.21
2023-03-22T00:29:16.205Z,70.45
2023-03-22T00:30:19.211Z,70.28
2023-03-22T00:31:22.220Z,70.80
2023-03-22T00:32:25.344Z,71.31
2023-03-22T00:33:29.736Z,71.17
2023-03-22T00:34:33.794Z,71.85
2023-03-22T00:35:36.809Z,70.66
2023-03-22T00:36:40.358Z,70.54
2023-03-22T00:37:43.264Z,70.23
2023-03-22T00:38:46.261Z,70.45
2023-03-22T00:39:49.201Z,70.53
2023-03-22T00:40:52.086Z,71.45
2023-03-22T00:41:54.992Z,72.45
2023-03-22T00:42:58.131Z,73.08
2023-03-22T00:44:01.389Z,73.85
2023-03-22T00:45:05.179Z,75.58
2023-03-22T00:46:09.596Z,76.00
2023-03-22T00:47:12.612Z,75.83
2023-03-22T00:48:15.650Z,77.06
2023-03-22T00:49:19.243Z,77.15
2023-03-22T00:50:22.323Z,76.79
2023-03-22T00:51:25.506Z,75.81
2023-03-22T00:52:32.023Z,75.81
2023-03-22T00:53:36.726Z,76.24
2023-03-22T00:54:39.755Z,78.85
2023-03-22T00:55:42.657Z,77.80
2023-03-22T00:56:45.712Z,77.98
2023-03-22T00:57:48.716Z,78.98
2023-03-22T00:58:51.685Z,78.52
2023-03-22T00:59:56.086Z,77.86
2023-03-22T01:00:59.462Z,78.08
2023-03-22T01:02:04.421Z,78.26
2023-03-22T01:03:07.565Z,78.04
2023-03-22T01:04:15.765Z,77.68
2023-03-22T01:05:22.326Z,77.52
2023-03-22T01:06:25.706Z,78.22
2023-03-22T01:07:28.580Z,77.80
2023-03-22T01:08:33.670Z,77.45
2023-03-22T01:09:36.925Z,76.95
2023-03-22T01:10:41.186Z,77.17
2023-03-22T01:11:44.408Z,77.64
2023-03-22T01:12:47.664Z,77.58
2023-03-22T01:13:50.997Z,77.69
2023-03-22T01:14:53.861Z,77.51
2023-03-22T01:15:56.910Z,77.95
2023-03-22T01:17:00.391Z,77.94
2023-03-22T01:18:04.349Z,77.86
2023-03-22T01:19:07.568Z,77.82
2023-03-22T01:20:11.402Z,77.48
2023-03-22T01:21:14.352Z,77.39
2023-03-22T01:22:17.164Z,77.38
2023-03-22T01:23:20.050Z,77.28
2023-03-22T01:24:23.023Z,76.87
2023-03-22T01:25:25.992Z,77.17
2023-03-22T01:26:28.848Z,77.28
2023-03-22T01:27:33.193Z,78.15
2023-03-22T01:28:36.212Z,79.04
2023-03-22T01:29:39.094Z,78.84
2023-03-22T01:30:42.546Z,78.53
2023-03-22T01:31:45.896Z,78.81
2023-03-22T01:32:48.690Z,79.49
2023-03-22T01:33:51.647Z,79.15
2023-03-22T01:34:54.776Z,78.24
2023-03-22T01:35:57.639Z,78.45
2023-03-22T01:37:00.627Z,77.89
2023-03-22T01:38:04.410Z,77.50
2023-03-22T01:39:07.489Z,77.72
2023-03-22T01:40:13.074Z,79.75
2023-03-22T01:41:17.638Z,78.69
2023-03-22T01:42:22.832Z,78.72
2023-03-22T01:43:25.910Z,78.63
2023-03-22T01:44:30.815Z,78.59
2023-03-22T01:45:47.828Z,78.74
2023-03-22T01:46:52.132Z,78.29
2023-03-22T01:48:14.074Z,78.08
2023-03-22T01:49:23.948Z,78.12
2023-03-22T01:50:28.144Z,78.07
2023-03-22T01:51:31.370Z,77.08
2023-03-22T01:52:34.707Z,75.92
2023-03-22T01:53:43.522Z,77.20
2023-03-22T01:54:53.049Z,77.73
2023-03-22T01:55:58.178Z,78.57
2023-03-22T01:57:01.788Z,78.31
2023-03-22T01:58:05.223Z,77.35
2023-03-22T01:59:13.063Z,77.25
2023-03-22T02:00:19.212Z,77.37
2023-03-22T02:01:24.061Z,77.82
2023-03-22T02:02:31.137Z,78.02
2023-03-22T02:03:53.074Z,78.92
2023-03-22T02:04:58.276Z,78.61
2023-03-22T02:06:01.192Z,79.02
2023-03-22T02:07:15.724Z,78.99
2023-03-22T02:08:19.084Z,78.20
2023-03-22T02:09:22.386Z,77.70
2023-03-22T02:10:27.654Z,78.12
2023-03-22T02:11:43.071Z,80.13
2023-03-22T02:13:13.731Z,79.58
2023-03-22T02:14:31.789Z,79.97
2023-03-22T02:15:47.274Z,80.54
2023-03-22T02:17:08.335Z,81.52
2023-03-22T02:18:24.632Z,80.98
2023-03-22T02:20:11.331Z,80.15
2023-03-22T02:21:58.629Z,79.82
2023-03-22T02:23:48.978Z,79.24
2023-03-22T02:24:51.715Z,78.89
2023-03-22T02:26:13.182Z,79.06
2023-03-22T02:27:46.079Z,81.09
2023-03-22T02:28:56.914Z,81.21
2023-03-22T02:30:19.523Z,81.12
2023-03-22T02:31:36.382Z,81.01
2023-03-22T02:33:12.945Z,81.11
2023-03-22T02:34:33.082Z,81.54
2023-03-22T02:35:46.373Z,80.77
2023-03-22T02:37:17.713Z,81.12
2023-03-22T02:38:20.523Z,82.04
2023-03-22T02:39:29.364Z,82.33
2023-03-22T02:40:32.768Z,82.41
2023-03-22T02:41:56.256Z,81.69
2023-03-22T02:43:38.851Z,82.30
2023-03-22T02:44:49.244Z,81.95
2023-03-22T02:45:59.054Z,82.63
2023-03-22T02:47:41.415Z,82.15
2023-03-22T02:49:03.097Z,82.00
2023-03-22T02:50:18.034Z,82.27
2023-03-22T02:51:34.730Z,82.18
2023-03-22T02:52:46.768Z,82.32
2023-03-22T02:54:10.601Z,82.36
2023-03-22T02:55:30.426Z,82.79
2023-03-22T02:56:57.036Z,82.59
2023-03-22T02:58:22.338Z,82.47
2023-03-22T02:59:27.360Z,82.06
2023-03-22T03:00:33.158Z,82.35
2023-03-22T03:01:53.030Z,83.06
2023-03-22T03:03:01.330Z,83.03
2023-03-22T03:04:11.317Z,83.05
2023-03-22T03:05:16.662Z,83.59
2023-03-22T03:06:26.082Z,83.35
2023-03-22T03:07:31.685Z,83.05
2023-03-22T03:08:37.417Z,82.85
2023-03-22T03:09:43.055Z,82.53
2023-03-22T03:10:46.774Z,82.17
2023-03-22T03:11:52.586Z,82.12
2023-03-22T03:12:55.685Z,82.04
2023-03-22T03:13:58.546Z,81.75
2023-03-22T03:15:01.376Z,80.80
2023-03-22T03:16:08.170Z,80.62
2023-03-22T03:17:41.548Z,80.49
2023-03-22T03:19:02.882Z,80.03
2023-03-22T03:20:22.392Z,79.10
2023-03-22T03:21:34.998Z,79.20
2023-03-22T03:22:44.146Z,78.99
2023-03-22T03:24:18.462Z,79.10
2023-03-22T03:25:32.312Z,78.82
2023-03-22T03:27:07.473Z,79.03
2023-03-22T03:28:30.784Z,78.66
2023-03-22T03:29:42.514Z,78.93
2023-03-22T03:30:54.461Z,78.99
2023-03-22T03:32:26.633Z,78.93
2023-03-22T03:33:33.682Z,78.58
2023-03-22T03:34:49.749Z,78.74
2023-03-22T03:36:01.805Z,78.70
2023-03-22T03:37:12.320Z,78.33
2023-03-22T03:38:23.729Z,78.28
2023-03-22T03:39:31.514Z,78.56
2023-03-22T03:40:38.249Z,78.86
2023-03-22T03:41:43.969Z,79.12
2023-03-22T03:42:51.905Z,78.90
2023-03-22T03:43:57.899Z,78.92
2023-03-22T03:45:01.908Z,78.66
2023-03-22T03:46:06.786Z,78.88
2023-03-22T03:47:12.279Z,78.96
2023-03-22T03:48:26.926Z,78.74
2023-03-22T03:49:29.987Z,78.45
2023-03-22T03:50:33.309Z,78.71
2023-03-22T03:51:47.777Z,79.24
2023-03-22T03:52:51.149Z,80.23
2023-03-22T03:53:54.033Z,80.98
2023-03-22T03:54:56.899Z,81.25
2023-03-22T03:55:59.845Z,80.76
2023-03-22T03:57:04.060Z,80.33
2023-03-22T03:58:09.299Z,79.71
2023-03-22T03:59:12.532Z,79.84
2023-03-22T04:00:16.205Z,79.56
2023-03-22T04:01:20.939Z,79.43
2023-03-22T04:02:24.076Z,79.56
2023-03-22T04:03:27.123Z,79.82
2023-03-22T04:04:30.293Z,79.94
2023-03-22T04:05:33.307Z,79.90
2023-03-22T04:06:36.012Z,80.12
2023-03-22T04:07:39.565Z,80.92
2023-03-22T04:08:45.899Z,81.05
2023-03-22T04:09:48.801Z,80.39
2023-03-22T04:10:52.223Z,80.05
2023-03-22T04:11:56.900Z,79.91
2023-03-22T04:12:59.693Z,79.17
2023-03-22T04:14:02.662Z,79.85
2023-03-22T04:15:06.053Z,80.15
2023-03-22T04:16:09.711Z,80.24
2023-03-22T04:17:12.718Z,80.91
2023-03-22T04:18:15.834Z,80.66
2023-03-22T04:19:19.694Z,81.04
2023-03-22T04:20:22.774Z,81.12
2023-03-22T04:21:25.712Z,81.39
2023-03-22T04:22:28.869Z,81.78
2023-03-22T04:23:33.661Z,81.43
2023-03-22T04:24:38.103Z,80.91
2023-03-22T04:25:42.002Z,80.90
2023-03-22T04:26:45.365Z,80.54
2023-03-22T04:27:51.337Z,80.72
2023-03-22T04:28:54.465Z,80.63
2023-03-22T04:29:58.249Z,79.85
2023-03-22T04:31:03.715Z,80.11
2023-03-22T04:32:06.684Z,80.46
2023-03-22T04:33:09.649Z,80.04
2023-03-22T04:34:12.555Z,79.72
2023-03-22T04:35:16.533Z,80.03
2023-03-22T04:36:19.918Z,80.35
2023-03-22T04:37:27.252Z,79.75
2023-03-22T04:38:30.095Z,79.15
2023-03-22T04:39:32.974Z,79.22
2023-03-22T04:40:39.025Z,79.92
2023-03-22T04:41:42.421Z,80.59
2023-03-22T04:42:45.818Z,80.43
2023-03-22T04:43:51.205Z,80.56
2023-03-22T04:44:53.997Z,80.78
2023-03-22T04:45:58.613Z,81.35
2023-03-22T04:47:01.534Z,81.48
2023-03-22T04:48:04.589Z,81.01
2023-03-22T04:49:07.548Z,80.34
2023-03-22T04:50:10.888Z,79.46
2023-03-22T04:51:14.026Z,79.91
2023-03-22T04:52:17.019Z,81.21
2023-03-22T04:53:19.988Z,81.41
2023-03-22T04:54:24.034Z,81.42
2023-03-22T04:55:27.855Z,80.91
2023-03-22T04:56:31.252Z,81.83
2023-03-22T04:57:35.471Z,81.74
2023-03-22T04:58:40.371Z,80.67
2023-03-22T04:59:43.397Z,80.17
2023-03-22T05:00:48.672Z,80.08
2023-03-22T05:01:51.829Z,80.33
2023-03-22T05:02:54.756Z,81.52
2023-03-22T05:03:57.731Z,81.57
2023-03-22T05:05:00.742Z,81.26
2023-03-22T05:06:06.795Z,80.89
2023-03-22T05:07:09.808Z,81.30
2023-03-22T05:08:14.641Z,81.72
2023-03-22T05:09:17.606Z,82.32
2023-03-22T05:10:21.266Z,82.03
2023-03-22T05:11:27.963Z,82.53
2023-03-22T05:12:30.939Z,83.03
2023-03-22T05:13:34.120Z,83.30
2023-03-22T05:14:37.088Z,83.44
2023-03-22T05:15:41.854Z,83.54
2023-03-22T05:16:45.478Z,83.64
2023-03-22T05:17:48.432Z,83.58
2023-03-22T05:18:54.656Z,83.26
2023-03-22T05:19:57.714Z,83.16
2023-03-22T05:21:04.083Z,83.20
2023-03-22T05:22:07.204Z,82.76
2023-03-22T05:23:10.531Z,82.58
2023-03-22T05:24:13.441Z,82.62
2023-03-22T05:25:16.414Z,82.56
2023-03-22T05:26:20.606Z,82.82
2023-03-22T05:27:34.486Z,82.70
2023-03-22T05:28:38.805Z,82.39
2023-03-22T05:29:45.294Z,82.46
2023-03-22T05:30:49.764Z,82.66
2023-03-22T05:31:52.842Z,82.98
2023-03-22T05:33:05.037Z,82.62
2023-03-22T05:34:08.341Z,82.79
2023-03-22T05:35:11.308Z,82.76
2023-03-22T05:36:14.340Z,82.25
2023-03-22T05:37:17.273Z,82.41
2023-03-22T05:38:23.055Z,82.27
2023-03-22T05:39:26.064Z,82.22
2023-03-22T05:40:29.434Z,82.35
2023-03-22T05:41:36.324Z,82.33
2023-03-22T05:42:39.505Z,82.44
2023-03-22T05:43:42.554Z,82.58
2023-03-22T05:44:45.507Z,82.80
2023-03-22T05:45:49.354Z,82.82
2023-03-22T05:46:52.452Z,82.08
2023-03-22T05:47:55.682Z,81.97
2023-03-22T05:48:58.827Z,81.77
2023-03-22T05:50:01.676Z,81.39
2023-03-22T05:51:19.552Z,81.31
2023-03-22T05:52:22.829Z,81.48
2023-03-22T05:53:25.656Z,81.44
2023-03-22T05:54:28.630Z,81.43
2023-03-22T05:55:32.264Z,81.58
2023-03-22T05:56:35.967Z,82.12
2023-03-22T05:57:39.974Z,81.54
2023-03-22T05:58:43.119Z,81.55
2023-03-22T05:59:46.320Z,81.05
2023-03-22T06:00:52.092Z,80.88
2023-03-22T06:01:55.127Z,81.12
2023-03-22T06:03:03.454Z,80.38
2023-03-22T06:04:07.091Z,80.16
2023-03-22T06:05:13.467Z,80.32
2023-03-22T06:06:16.375Z,80.18
2023-03-22T06:07:19.713Z,79.21
2023-03-22T06:08:25.414Z,78.31
2023-03-22T06:09:29.576Z,78.04
2023-03-22T06:10:32.418Z,77.17
2023-03-22T06:11:35.692Z,76.83
2023-03-22T06:12:38.747Z,76.12
2023-03-22T06:13:41.669Z,75.61
2023-03-22T06:14:44.616Z,75.48
2023-03-22T06:15:47.529Z,75.72
2023-03-22T06:16:51.085Z,75.83
2023-03-22T06:17:54.166Z,75.49
2023-03-22T06:18:57.021Z,76.46
2023-03-22T06:19:59.927Z,75.92
2023-03-22T06:21:02.949Z,75.81
2023-03-22T06:22:05.900Z,75.58
2023-03-22T06:23:08.848Z,75.01
2023-03-22T06:24:12.053Z,74.83
2023-03-22T06:25:15.150Z,74.24
2023-03-22T06:26:17.998Z,74.04
2023-03-22T06:27:22.801Z,74.13
2023-03-22T06:28:29.893Z,73.60
2023-03-22T06:29:33.469Z,72.76
2023-03-22T06:30:37.507Z,72.72
2023-03-22T06:31:40.823Z,72.60
2023-03-22T06:32:43.677Z,72.20
2023-03-22T06:33:46.826Z,72.42
2023-03-22T06:34:50.976Z,71.93
2023-03-22T06:35:53.883Z,72.80
2023-03-22T06:36:56.998Z,72.19
2023-03-22T06:38:00.400Z,71.67
2023-03-22T06:39:05.390Z,72.68
2023-03-22T06:40:09.564Z,71.87
2023-03-22T06:41:12.610Z,72.14
2023-03-22T06:42:15.972Z,72.66
2023-03-22T06:43:18.731Z,72.34
2023-03-22T06:44:22.910Z,72.30
2023-03-22T06:45:25.812Z,72.54
2023-03-22T06:46:29.115Z,72.07
2023-03-22T06:47:32.305Z,71.91
2023-03-22T06:48:36.417Z,71.64
2023-03-22T06:49:40.177Z,72.09
2023-03-22T06:50:45.333Z,72.91
2023-03-22T06:51:48.494Z,72.67
2023-03-22T06:52:51.460Z,72.24
2023-03-22T06:53:54.312Z,71.45
2023-03-22T06:54:59.974Z,71.92
2023-03-22T06:56:03.090Z,70.90
2023-03-22T06:57:06.137Z,71.07
2023-03-22T06:58:09.120Z,70.92
2023-03-22T06:59:12.038Z,70.30
2023-03-22T07:00:15.706Z,70.80
2023-03-22T07:01:19.876Z,71.00
2023-03-22T07:02:23.369Z,71.16
2023-03-22T07:03:26.441Z,70.22
2023-03-22T07:04:29.893Z,69.59
2023-03-22T07:05:32.760Z,69.94
2023-03-22T07:06:36.186Z,69.99
2023-03-22T07:07:39.229Z,70.36
2023-03-22T07:08:42.431Z,70.31
2023-03-22T07:09:45.140Z,69.11
2023-03-22T07:10:51.804Z,69.27
2023-03-22T07:11:54.999Z,69.61
2023-03-22T07:12:58.568Z,69.10
2023-03-22T07:14:01.720Z,69.33
2023-03-22T07:15:05.130Z,69.82
2023-03-22T07:16:08.765Z,69.64
2023-03-22T07:17:14.304Z,69.44
2023-03-22T07:18:17.275Z,71.12
2023-03-22T07:19:20.558Z,71.06
2023-03-22T07:20:23.516Z,71.41
2023-03-22T07:21:26.735Z,71.24
2023-03-22T07:22:29.754Z,70.38
2023-03-22T07:23:32.826Z,69.00
2023-03-22T07:24:40.320Z,68.92
2023-03-22T07:25:48.576Z,69.53
2023-03-22T07:26:51.537Z,69.14
2023-03-22T07:27:54.472Z,67.96
2023-03-22T07:28:57.786Z,66.70
2023-03-22T07:30:00.837Z,66.57
2023-03-22T07:31:07.054Z,67.38
2023-03-22T07:32:10.644Z,68.18
2023-03-22T07:33:14.359Z,67.94
2023-03-22T07:34:17.428Z,67.94
2023-03-22T07:35:20.616Z,67.56
2023-03-22T07:36:26.039Z,67.31
2023-03-22T07:37:29.315Z,67.43
2023-03-22T07:38:32.967Z,66.57
2023-03-22T07:39:35.935Z,66.87
2023-03-22T07:40:39.286Z,66.72
2023-03-22T07:41:42.470Z,66.81
2023-03-22T07:42:48.257Z,66.88
2023-03-22T07:43:56.798Z,67.63
2023-03-22T07:45:01.428Z,67.07
2023-03-22T07:46:05.051Z,66.40
2023-03-22T07:47:07.955Z,67.17
2023-03-22T07:48:12.201Z,67.60
2023-03-22T07:49:15.192Z,67.12
2023-03-22T07:50:18.869Z,67.33
2023-03-22T07:51:21.771Z,67.64
2023-03-22T07:52:24.957Z,67.37
2023-03-22T07:53:28.058Z,66.29
2023-03-22T07:54:34.220Z,66.74
2023-03-22T07:55:39.008Z,66.62
2023-03-22T07:56:42.884Z,68.09
2023-03-22T07:57:46.607Z,66.92
2023-03-22T07:58:49.569Z,65.71
2023-03-22T07:59:52.573Z,65.10
2023-03-22T08:00:55.291Z,66.41
2023-03-22T08:01:58.277Z,66.93
2023-03-22T08:03:02.086Z,66.51
2023-03-22T08:04:05.512Z,65.40
2023-03-22T08:05:08.973Z,65.45
2023-03-22T08:06:12.653Z,64.70
2023-03-22T08:07:19.050Z,65.62
2023-03-22T08:08:22.019Z,64.98
2023-03-22T08:09:26.398Z,64.87
2023-03-22T08:10:29.788Z,64.49
2023-03-22T08:11:33.059Z,65.08
2023-03-22T08:12:36.368Z,64.21
2023-03-22T08:13:39.985Z,63.37
2023-03-22T08:14:42.903Z,63.64
2023-03-22T08:15:47.406Z,62.33
2023-03-22T08:16:50.753Z,61.78
2023-03-22T08:17:58.170Z,61.02
2023-03-22T08:19:01.555Z,61.34
2023-03-22T08:20:08.927Z,60.63
2023-03-22T08:21:12.362Z,60.71
2023-03-22T08:22:15.639Z,60.76
2023-03-22T08:23:20.106Z,61.40
2023-03-22T08:24:26.310Z,61.12
2023-03-22T08:25:29.824Z,61.36
2023-03-22T08:26:32.711Z,61.79
2023-03-22T08:27:35.596Z,62.06
2023-03-22T08:28:40.976Z,62.44
2023-03-22T08:29:43.959Z,62.02
2023-03-22T08:30:48.220Z,62.20
2023-03-22T08:31:52.190Z,62.05
2023-03-22T08:32:55.022Z,62.18
2023-03-22T08:33:58.904Z,61.76
2023-03-22T08:35:01.720Z,61.52
2023-03-22T08:36:07.207Z,62.31
2023-03-22T08:37:12.511Z,61.86
2023-03-22T08:38:15.836Z,61.09
2023-03-22T08:39:18.752Z,61.19
2023-03-22T08:40:23.175Z,61.35
2023-03-22T08:41:26.072Z,61.36
2023-03-22T08:42:29.137Z,61.43
2023-03-22T08:43:32.045Z,60.79
2023-03-22T08:44:34.842Z,60.80
2023-03-22T08:45:38.199Z,60.67
2023-03-22T08:46:41.561Z,61.06
2023-03-22T08:47:45.225Z,61.22
2023-03-22T08:48:51.032Z,60.82
2023-03-22T08:49:54.455Z,60.87
2023-03-22T08:50:58.408Z,60.02
2023-03-22T08:52:01.335Z,60.81
2023-03-22T08:53:04.281Z,59.83
2023-03-22T08:54:07.657Z,60.23
2023-03-22T08:55:10.970Z,60.77
2023-03-22T08:56:16.980Z,61.03
2023-03-22T08:57:22.606Z,61.28
2023-03-22T08:58:25.459Z,60.93
2023-03-22T08:59:28.348Z,60.77
2023-03-22T09:00:42.443Z,60.76
2023-03-22T09:01:49.086Z,60.72
2023-03-22T09:02:52.272Z,60.26
2023-03-22T09:03:55.628Z,60.17
2023-03-22T09:04:58.621Z,59.40
2023-03-22T09:06:01.522Z,60.14
2023-03-22T09:07:04.781Z,59.80
2023-03-22T09:08:08.937Z,60.29
2023-03-22T09:09:12.262Z,60.25
2023-03-22T09:10:16.976Z,60.31
2023-03-22T09:11:20.942Z,60.68
2023-03-22T09:12:23.960Z,60.17
2023-03-22T09:13:27.042Z,59.40
2023-03-22T09:14:30.527Z,59.25
2023-03-22T09:15:33.310Z,59.89
2023-03-22T09:16:36.871Z,59.75
2023-03-22T09:17:39.981Z,60.64
2023-03-22T09:18:43.335Z,61.67
2023-03-22T09:19:48.093Z,61.20
2023-03-22T09:20:52.146Z,61.65
2023-03-22T09:21:55.855Z,60.64
2023-03-22T09:22:58.904Z,60.12
2023-03-22T09:24:02.393Z,59.36
2023-03-22T09:25:06.384Z,59.78
2023-03-22T09:26:09.678Z,59.90
2023-03-22T09:27:13.064Z,59.61
2023-03-22T09:28:17.332Z,60.35
2023-03-22T09:29:21.140Z,59.09
2023-03-22T09:30:24.409Z,59.65
2023-03-22T09:31:27.239Z,59.84
2023-03-22T09:32:30.150Z,58.72
2023-03-22T09:33:35.780Z,58.95
2023-03-22T09:34:38.631Z,59.09
2023-03-22T09:35:43.570Z,59.94
2023-03-22T09:36:47.747Z,60.61
2023-03-22T09:37:53.639Z,59.73
2023-03-22T09:38:56.716Z,58.54
2023-03-22T09:39:59.698Z,58.68
2023-03-22T09:41:18.387Z,59.52
2023-03-22T09:42:32.414Z,58.66
2023-03-22T09:44:03.780Z,58.59
2023-03-22T09:45:13.062Z,58.90
2023-03-22T09:46:24.539Z,59.39
2023-03-22T09:47:51.404Z,60.46
2023-03-22T09:48:54.500Z,60.54
2023-03-22T09:50:07.028Z,59.69
2023-03-22T09:51:28.290Z,60.37
2023-03-22T09:52:31.355Z,59.63
2023-03-22T09:53:34.629Z,60.32
2023-03-22T09:54:43.263Z,60.04
2023-03-22T09:55:51.111Z,60.56
2023-03-22T09:57:00.549Z,60.24
2023-03-22T09:58:22.229Z,60.75
2023-03-22T09:59:36.338Z,60.35
2023-03-22T10:00:51.906Z,59.86
2023-03-22T10:02:11.633Z,60.08
2023-03-22T10:03:25.024Z,60.40
2023-03-22T10:04:31.323Z,60.36
2023-03-22T10:05:48.723Z,60.32
2023-03-22T10:07:07.055Z,60.86
2023-03-22T10:08:33.874Z,59.93
2023-03-22T10:10:04.082Z,60.50
2023-03-22T10:11:22.878Z,61.03
2023-03-22T10:12:35.460Z,61.06
2023-03-22T10:13:57.917Z,60.88
2023-03-22T10:15:26.663Z,61.06
2023-03-22T10:16:34.170Z,60.80
2023-03-22T10:17:40.122Z,60.52
2023-03-22T10:18:48.904Z,61.17
2023-03-22T10:20:01.673Z,60.76
2023-03-22T10:21:06.742Z,60.40
2023-03-22T10:22:14.454Z,60.19
2023-03-22T10:23:24.764Z,59.15
2023-03-22T10:24:33.270Z,58.78
2023-03-22T10:25:40.162Z,58.75
2023-03-22T10:26:47.996Z,59.28
2023-03-22T10:27:51.959Z,59.26
2023-03-22T10:29:03.768Z,59.69
2023-03-22T10:30:18.942Z,59.78
2023-03-22T10:31:22.175Z,60.47
2023-03-22T10:32:57.102Z,59.86
2023-03-22T10:34:21.129Z,59.66
2023-03-22T10:35:23.982Z,60.59
2023-03-22T10:36:35.187Z,60.92
2023-03-22T10:37:40.415Z,59.99
2023-03-22T10:38:48.769Z,60.33
2023-03-22T10:39:56.019Z,58.97
2023-03-22T10:41:00.760Z,58.97
2023-03-22T10:42:08.437Z,58.92
2023-03-22T10:43:23.105Z,58.77
2023-03-22T10:44:30.740Z,59.32
2023-03-22T10:45:35.795Z,59.43
2023-03-22T10:46:43.538Z,59.05
2023-03-22T10:47:58.210Z,58.70
2023-03-22T10:49:02.601Z,58.35
2023-03-22T10:50:12.840Z,58.52
2023-03-22T10:51:31.315Z,58.36
2023-03-22T10:52:40.764Z,58.27
2023-03-22T10:53:50.894Z,58.37
2023-03-22T10:54:59.273Z,58.41
2023-03-22T10:56:05.446Z,57.88
2023-03-22T10:57:08.476Z,57.31
2023-03-22T10:58:16.839Z,57.56
2023-03-22T10:59:58.757Z,57.59
2023-03-22T11:01:13.707Z,57.91
2023-03-22T11:02:25.508Z,57.86
2023-03-22T11:03:37.456Z,56.89
2023-03-22T11:04:41.839Z,56.85
2023-03-22T11:05:59.080Z,56.72
2023-03-22T11:07:02.055Z,56.79
2023-03-22T11:08:07.040Z,57.10
2023-03-22T11:09:21.481Z,57.63
2023-03-22T11:10:33.129Z,58.24
2023-03-22T11:11:47.629Z,58.04
2023-03-22T11:12:54.241Z,57.28
2023-03-22T11:14:25.463Z,57.69
2023-03-22T11:15:32.618Z,57.96
2023-03-22T11:16:51.631Z,57.34
2023-03-22T11:18:10.795Z,57.16
2023-03-22T11:19:24.971Z,56.92
2023-03-22T11:20:37.739Z,57.11
2023-03-22T11:21:43.718Z,57.16
2023-03-22T11:22:49.682Z,57.44
2023-03-22T11:24:01.687Z,57.48
2023-03-22T11:25:15.146Z,55.74
2023-03-22T11:26:29.674Z,56.31
2023-03-22T11:27:34.080Z,56.65
2023-03-22T11:28:48.384Z,56.09
2023-03-22T11:29:59.637Z,56.38
2023-03-22T11:31:07.972Z,56.28
2023-03-22T11:32:26.534Z,55.72
2023-03-22T11:33:29.824Z,54.96
2023-03-22T11:34:32.762Z,54.33
2023-03-22T11:35:38.247Z,54.15
2023-03-22T11:36:51.443Z,54.27
2023-03-22T11:37:58.289Z,52.93
2023-03-22T11:39:07.537Z,54.04
2023-03-22T11:40:16.194Z,54.22
2023-03-22T11:41:53.290Z,53.02
2023-03-22T11:43:11.680Z,52.07
2023-03-22T11:44:18.281Z,51.49
2023-03-22T11:45:32.463Z,52.15
2023-03-22T11:46:37.040Z,51.49
2023-03-22T11:47:40.462Z,50.40
2023-03-22T11:48:46.535Z,49.82
2023-03-22T11:49:52.670Z,50.35
2023-03-22T11:51:10.011Z,49.79
2023-03-22T11:52:18.404Z,49.22
2023-03-22T11:53:27.554Z,49.73
2023-03-22T11:54:34.500Z,49.57
2023-03-22T11:55:37.592Z,49.29
2023-03-22T11:56:47.572Z,48.90
2023-03-22T11:57:50.625Z,48.95
2023-03-22T11:59:04.346Z,48.80
2023-03-22T12:00:20.768Z,49.74
2023-03-22T12:01:50.042Z,49.36
2023-03-22T12:03:00.838Z,49.80
2023-03-22T12:04:05.426Z,50.05
2023-03-22T12:05:35.033Z,49.96
2023-03-22T12:06:41.411Z,50.70
2023-03-22T12:07:45.072Z,50.25
2023-03-22T12:09:03.835Z,49.82
2023-03-22T12:10:21.836Z,50.20
2023-03-22T12:11:50.153Z,49.10
2023-03-22T12:12:58.721Z,51.02
2023-03-22T12:14:19.558Z,49.36
2023-03-22T12:15:30.289Z,49.36
2023-03-22T12:16:45.042Z,49.69
2023-03-22T12:18:01.188Z,48.37
2023-03-22T12:19:15.034Z,48.23
2023-03-22T12:20:35.437Z,49.30
2023-03-22T12:21:38.409Z,49.47
2023-03-22T12:22:48.253Z,48.61
2023-03-22T12:23:51.358Z,49.05
2023-03-22T12:24:54.394Z,48.41
2023-03-22T12:26:26.668Z,49.18
2023-03-22T12:27:37.712Z,48.81
2023-03-22T12:28:48.470Z,48.62
2023-03-22T12:30:19.691Z,49.20
2023-03-22T12:31:45.968Z,47.51
2023-03-22T12:32:59.411Z,47.81
2023-03-22T12:34:18.803Z,48.12
2023-03-22T12:35:29.698Z,46.32
2023-03-22T12:36:43.257Z,45.78
2023-03-22T12:37:51.878Z,45.12
2023-03-22T12:38:57.628Z,46.16
2023-03-22T12:40:16.153Z,46.20
2023-03-22T12:41:47.102Z,46.18
2023-03-22T12:43:03.884Z,45.94
2023-03-22T12:44:30.463Z,47.51
2023-03-22T12:45:40.813Z,45.58
2023-03-22T12:46:56.210Z,45.38
2023-03-22T12:48:19.530Z,46.71
2023-03-22T12:49:22.541Z,46.49
2023-03-22T12:51:00.833Z,46.41
2023-03-22T12:52:44.732Z,46.33
2023-03-22T12:53:55.091Z,46.05
2023-03-22T12:55:01.931Z,44.79
2023-03-22T12:56:05.355Z,44.49
2023-03-22T12:57:09.419Z,44.77
2023-03-22T12:58:22.502Z,44.96
2023-03-22T12:59:29.453Z,44.62
2023-03-22T13:00:38.679Z,43.78
2023-03-22T13:01:44.758Z,43.35
2023-03-22T13:03:04.046Z,42.39
2023-03-22T13:04:25.997Z,43.62
2023-03-22T13:05:32.674Z,44.16
2023-03-22T13:06:47.988Z,43.84
2023-03-22T13:07:54.581Z,43.68
2023-03-22T13:09:13.331Z,43.80
2023-03-22T13:10:31.521Z,44.13
2023-03-22T13:11:35.114Z,42.95
2023-03-22T13:12:38.953Z,43.10
2023-03-22T13:13:45.533Z,43.74
2023-03-22T13:14:51.456Z,43.02
2023-03-22T13:16:13.866Z,41.73
2023-03-22T13:17:25.880Z,41.08
2023-03-22T13:18:38.430Z,41.15
2023-03-22T13:20:15.882Z,42.18
2023-03-22T13:21:21.902Z,42.44
2023-03-22T13:22:36.753Z,41.14
2023-03-22T13:24:15.569Z,41.30
2023-03-22T13:25:19.839Z,41.97
2023-03-22T13:26:32.005Z,41.75
2023-03-22T13:27:46.461Z,41.59
2023-03-22T13:29:01.788Z,41.93
2023-03-22T13:30:19.446Z,43.89
2023-03-22T13:31:53.654Z,43.90
2023-03-22T13:33:13.714Z,43.43
2023-03-22T13:34:20.353Z,43.69
2023-03-22T13:35:44.810Z,42.62
2023-03-22T13:36:57.025Z,42.92
2023-03-22T13:38:08.778Z,42.32
2023-03-22T13:39:12.741Z,41.46
2023-03-22T13:40:38.196Z,41.27
2023-03-22T13:42:02.182Z,40.93
2023-03-22T13:43:27.686Z,41.93
2023-03-22T13:44:38.580Z,43.33
2023-03-22T13:46:16.796Z,43.36
2023-03-22T13:47:36.604Z,42.96
2023-03-22T13:48:48.782Z,42.33
2023-03-22T13:50:05.558Z,42.33
2023-03-22T13:51:22.866Z,42.46
2023-03-22T13:52:30.315Z,44.28
2023-03-22T13:53:37.004Z,44.62
2023-03-22T13:54:48.425Z,43.69
2023-03-22T13:55:52.032Z,43.73
2023-03-22T13:57:00.753Z,44.71
2023-03-22T13:58:06.099Z,44.38
2023-03-22T13:59:28.127Z,44.89
2023-03-22T14:00:39.183Z,44.96
2023-03-22T14:01:47.837Z,44.40
2023-03-22T14:02:51.481Z,44.58
2023-03-22T14:04:01.418Z,44.25
2023-03-22T14:05:15.048Z,44.13
2023-03-22T14:06:25.956Z,43.97
2023-03-22T14:07:47.302Z,44.41
2023-03-22T14:08:56.295Z,44.64
2023-03-22T14:10:13.350Z,45.39
2023-03-22T14:11:43.089Z,45.52
2023-03-22T14:13:11.868Z,45.82
2023-03-22T14:14:27.494Z,45.27
2023-03-22T14:15:36.464Z,44.87
2023-03-22T14:16:49.944Z,45.27
2023-03-22T14:18:21.541Z,44.72
2023-03-22T14:19:29.545Z,44.80
2023-03-22T14:20:35.988Z,44.44
2023-03-22T14:21:41.911Z,44.61
